Hauptseite
METAR-TAF:

METAR-TAF

Flughäfen :

Flughafen Chongqing-Jiangbei

Chongqing, China

Breite: 29-31N, Länge: 106-29E, Höhe: 351 m

Beobachtung

Neuester Wetterbericht von vor 55 Minuten, um 05:00 UTC
Wind 6 kt aus Nordost, variierte zwischen Nord und Ost/Nordost
Temperatur 10°C
Luftfeuchtigkeit 82%
Luftdruck 1023 hPa
Sichtweite: 7000 m
Leicht bewölkt in der Höhe von 1600 ft
Aufgelockert bewölkt in der Höhe von 4300 ft

METAR: ZUCK 190500Z 04003MPS 360V060 7000 FEW016 SCT043 10/07 Q1023 NOSIG

Zeit: 13:55 (05:55 UTC)

Prognose

Neuester Wetterbericht von vor 2 Stunden und 51 Minuten, um 03:04 UTC
Gültige Prognose vom 19 um 06 UTC bis 20 um 06 UTC
Wind 6 kt aus Nord/Nordost
Sichtweite: 5000 m
Geschlossene Wolkendecke in der Höhe von 4000 ft
feuchter Dunst

TAF: ZUCK 190304Z 1906/2006 03003MPS 5000 BR OVC040 TX11/1908Z TN07/1921Z

Wetterbeobachtungen und Prognosen von mehr als 4000 Flughäfen (METAR und TAF Bericht).

Die verfügbaren Stationen werden durch gelbe und rote Markierungen auf der Karte dargestellt.

Führen Sie die Maus auf sie, um den Namen der Station zu sehen.

Darauf klicken, um die Beobachtung von Wetterbeobachtungen und Prognosen zu sehen.

Um die Karte zu ändern : klicken Sie auf den grünen Tasten mit einem schwarzen Kreuz Zum Vergrößern, auf den grünen Button mit einem Gedankenstrich zu verkleinern, oder auf die grünen Pfeile für benachbarte Karten.


METAR-TAF: